Time;durP1;ratioP1;P1;durP2;ratioP2;P2;SDS_P1;SDS_P2;PMS_P1;PMS_P2;Temp;Humidity;BMP_temperature;BMP_pressure;BME280_temperature;BME280_humidity;BME280_pressure;Samples;Min_cycle;Max_cycle;Signal;HPM_P1;HPM_P2
2023/03/03 00:01:24;;;;;;;76.70;41.28;;;;;;;;;;5009450;28;20026;-76
2023/03/03 00:03:50;;;;;;;72.82;37.85;;;;;;;;;;5009495;28;20076;-76
2023/03/03 00:06:16;;;;;;;77.00;42.03;;;;;;;;;;5024048;28;20037;-77
2023/03/03 00:08:42;;;;;;;79.10;42.38;;;;;;;;;;5008048;28;20072;-77
2023/03/03 00:11:08;;;;;;;80.47;41.53;;;;;;;;;;5024037;28;20424;-76
2023/03/03 00:13:42;;;;;;;75.00;38.10;;;;;;;;;;5024194;28;20029;-76
2023/03/03 00:16:29;;;;;;;76.05;40.38;;;;;;;;;;5039503;28;20490;-77
2023/03/03 00:18:55;;;;;;;76.68;38.45;;;;;;;;;;5015040;28;20062;-76
2023/03/03 00:21:21;;;;;;;70.57;37.78;;;;;;;;;;5028785;28;20033;-76
2023/03/03 00:23:47;;;;;;;72.40;39.00;;;;;;;;;;5028232;28;20076;-76
2023/03/03 00:26:29;;;;;;;72.50;40.08;;;;;;;;;;5029992;28;20048;-76
2023/03/03 00:28:55;;;;;;;82.65;43.90;;;;;;;;;;5033069;28;20112;-76
2023/03/03 00:31:33;;;;;;;104.55;48.88;;;;;;;;;;5050541;28;20154;-77
2023/03/03 00:34:11;;;;;;;102.68;51.40;;;;;;;;;;5033472;28;20129;-76
2023/03/03 00:36:37;;;;;;;109.75;55.28;;;;;;;;;;5030041;28;20079;-76
2023/03/03 00:39:13;;;;;;;89.85;47.25;;;;;;;;;;5023294;28;20041;-76
2023/03/03 00:41:40;;;;;;;91.55;45.22;;;;;;;;;;5030625;28;20033;-76
2023/03/03 00:44:27;;;;;;;78.57;41.40;;;;;;;;;;5032522;28;20040;-77
2023/03/03 00:46:54;;;;;;;77.57;39.13;;;;;;;;;;5030808;28;20834;-76
2023/03/03 00:49:25;;;;;;;78.38;40.55;;;;;;;;;;5032943;28;20617;-77
2023/03/03 00:51:51;;;;;;;78.65;42.08;;;;;;;;;;5028809;28;20029;-76
2023/03/03 00:54:17;;;;;;;74.13;37.72;;;;;;;;;;5032559;28;20079;-76
2023/03/03 00:56:43;;;;;;;71.00;36.90;;;;;;;;;;5029926;28;20042;-76
2023/03/03 00:59:09;;;;;;;71.57;36.70;;;;;;;;;;5032726;28;20068;-76
2023/03/03 01:01:35;;;;;;;67.70;36.70;;;;;;;;;;5031876;28;20033;-77
2023/03/03 01:04:01;;;;;;;64.47;34.70;;;;;;;;;;5030982;28;20044;-77
2023/03/03 01:06:27;;;;;;;68.53;35.25;;;;;;;;;;5030319;28;20074;-77
2023/03/03 01:08:56;;;;;;;58.70;33.67;;;;;;;;;;5029428;28;20108;-77
2023/03/03 01:11:24;;;;;;;61.50;32.53;;;;;;;;;;5029648;28;20169;-77
2023/03/03 01:13:50;;;;;;;62.88;34.97;;;;;;;;;;5029069;28;20041;-77
2023/03/03 01:16:17;;;;;;;63.20;34.13;;;;;;;;;;5025814;28;20038;-77
2023/03/03 01:18:43;;;;;;;63.55;36.38;;;;;;;;;;5033283;28;20127;-76
2023/03/03 01:21:09;;;;;;;58.80;31.85;;;;;;;;;;5029672;28;20681;-76
2023/03/03 01:23:36;;;;;;;59.80;32.25;;;;;;;;;;5011273;28;20029;-76
2023/03/03 01:26:02;;;;;;;56.90;31.98;;;;;;;;;;5051857;28;20037;-76
2023/03/03 01:28:28;;;;;;;63.22;33.20;;;;;;;;;;5032430;28;20483;-76
2023/03/03 01:30:55;;;;;;;63.88;34.33;;;;;;;;;;5031527;28;20041;-76
2023/03/03 01:33:21;;;;;;;62.67;33.85;;;;;;;;;;5019011;28;20080;-76
2023/03/03 01:35:47;;;;;;;64.35;34.85;;;;;;;;;;5031647;28;20036;-76
2023/03/03 01:38:13;;;;;;;64.88;35.58;;;;;;;;;;5030837;28;20026;-76
2023/03/03 01:40:39;;;;;;;61.33;33.35;;;;;;;;;;5031694;28;20386;-76
2023/03/03 01:43:06;;;;;;;58.17;31.77;;;;;;;;;;5032061;28;20750;-76
2023/03/03 01:45:44;;;;;;;58.47;31.55;;;;;;;;;;5026717;28;20124;-76
2023/03/03 01:48:15;;;;;;;62.47;32.55;;;;;;;;;;5011803;28;20038;-76
2023/03/03 01:50:44;;;;;;;53.38;30.55;;;;;;;;;;5021772;28;20155;-76
2023/03/03 01:53:17;;;;;;;60.78;33.10;;;;;;;;;;5030085;28;20038;-77
2023/03/03 01:55:43;;;;;;;61.08;34.03;;;;;;;;;;5026132;28;20573;-76
2023/03/03 01:58:15;;;;;;;59.63;32.75;;;;;;;;;;5011574;28;20034;-76
2023/03/03 02:00:42;;;;;;;60.90;34.10;;;;;;;;;;5022697;28;20025;-77
2023/03/03 02:03:09;;;;;;;57.58;33.00;;;;;;;;;;5016557;28;20365;-76
2023/03/03 02:05:35;;;;;;;60.15;33.83;;;;;;;;;;5016391;28;20025;-77
2023/03/03 02:08:02;;;;;;;70.82;38.10;;;;;;;;;;5030136;28;20506;-76
2023/03/03 02:10:28;;;;;;;63.13;35.25;;;;;;;;;;5014090;28;20030;-76
2023/03/03 02:12:55;;;;;;;62.97;35.40;;;;;;;;;;5031655;28;20041;-76
2023/03/03 02:15:22;;;;;;;63.22;33.45;;;;;;;;;;5030788;28;20032;-76
2023/03/03 02:17:49;;;;;;;57.15;31.95;;;;;;;;;;5011072;28;20033;-76
2023/03/03 02:20:20;;;;;;;58.55;32.85;;;;;;;;;;5015940;28;20040;-77
2023/03/03 02:22:58;;;;;;;59.83;31.90;;;;;;;;;;5036116;28;20192;-76
2023/03/03 02:25:33;;;;;;;57.40;30.20;;;;;;;;;;5030542;28;20033;-76
2023/03/03 02:27:59;;;;;;;65.85;34.63;;;;;;;;;;5030398;28;20781;-77
2023/03/03 02:30:25;;;;;;;60.25;33.05;;;;;;;;;;5027981;28;20112;-77
2023/03/03 02:32:51;;;;;;;61.67;33.95;;;;;;;;;;5030683;28;20164;-77
2023/03/03 02:35:37;;;;;;;61.90;33.15;;;;;;;;;;5025106;28;20120;-77
2023/03/03 02:38:17;;;;;;;59.75;31.80;;;;;;;;;;5011290;28;20048;-76
2023/03/03 02:41:03;;;;;;;57.17;32.63;;;;;;;;;;5011336;28;20433;-77
2023/03/03 02:43:33;;;;;;;55.70;30.05;;;;;;;;;;5030307;28;20076;-76
2023/03/03 02:45:59;;;;;;;53.03;29.50;;;;;;;;;;5028427;28;20053;-77
2023/03/03 02:48:25;;;;;;;55.33;30.95;;;;;;;;;;5025225;28;20033;-76
2023/03/03 02:50:51;;;;;;;60.83;32.40;;;;;;;;;;5016846;28;20092;-77
2023/03/03 02:53:17;;;;;;;56.05;31.23;;;;;;;;;;5028167;28;20025;-76
2023/03/03 02:55:43;;;;;;;59.60;31.80;;;;;;;;;;5010685;28;20036;-76
2023/03/03 02:58:09;;;;;;;56.20;31.45;;;;;;;;;;5042846;28;20116;-76
2023/03/03 03:00:35;;;;;;;60.33;34.35;;;;;;;;;;5032344;28;20026;-77
2023/03/03 03:03:01;;;;;;;66.18;33.45;;;;;;;;;;5015929;28;20037;-76
2023/03/03 03:05:27;;;;;;;60.13;32.40;;;;;;;;;;5012502;28;20443;-77
2023/03/03 03:07:53;;;;;;;59.15;31.95;;;;;;;;;;5029432;28;20098;-77
2023/03/03 03:10:19;;;;;;;57.60;29.95;;;;;;;;;;5029878;28;20033;-77
2023/03/03 03:12:45;;;;;;;54.88;31.70;;;;;;;;;;5029564;28;20041;-77
2023/03/03 03:15:11;;;;;;;56.10;31.42;;;;;;;;;;5030386;28;20808;-76
2023/03/03 03:17:38;;;;;;;61.38;31.77;;;;;;;;;;5028837;28;20044;-76
2023/03/03 03:20:04;;;;;;;61.30;33.45;;;;;;;;;;5030057;28;20104;-77
2023/03/03 03:22:30;;;;;;;64.68;34.63;;;;;;;;;;5013672;28;20041;-76
2023/03/03 03:24:56;;;;;;;64.47;30.20;;;;;;;;;;5029658;28;20478;-77
2023/03/03 03:27:22;;;;;;;69.75;34.05;;;;;;;;;;5019957;28;20117;-76
2023/03/03 03:29:48;;;;;;;65.88;33.75;;;;;;;;;;5011047;28;20034;-77
2023/03/03 03:32:14;;;;;;;67.30;35.05;;;;;;;;;;5016389;28;20068;-77
2023/03/03 03:34:40;;;;;;;61.83;33.20;;;;;;;;;;5019782;28;20044;-76
2023/03/03 03:37:08;;;;;;;60.67;33.13;;;;;;;;;;5028943;28;20499;-76
2023/03/03 03:39:34;;;;;;;66.72;36.25;;;;;;;;;;5025323;28;20068;-76
2023/03/03 03:42:00;;;;;;;64.07;34.65;;;;;;;;;;5020005;28;20061;-77
2023/03/03 03:44:26;;;;;;;63.38;32.38;;;;;;;;;;5022783;28;20099;-76
2023/03/03 03:46:52;;;;;;;64.97;33.10;;;;;;;;;;5025961;28;20117;-77
2023/03/03 03:49:18;;;;;;;61.92;33.28;;;;;;;;;;5030807;28;20041;-76
2023/03/03 03:51:44;;;;;;;55.90;31.10;;;;;;;;;;5049578;28;20041;-77
2023/03/03 03:54:10;;;;;;;60.85;32.67;;;;;;;;;;5038933;28;20033;-77
2023/03/03 03:56:36;;;;;;;64.88;34.05;;;;;;;;;;5029075;28;20034;-76
2023/03/03 03:59:03;;;;;;;63.25;32.33;;;;;;;;;;5027496;28;20507;-76
2023/03/03 04:01:29;;;;;;;62.47;32.88;;;;;;;;;;5035494;28;20442;-77
2023/03/03 04:03:54;;;;;;;64.40;34.40;;;;;;;;;;5035296;28;20036;-76
2023/03/03 04:06:21;;;;;;;65.57;33.72;;;;;;;;;;5036053;28;20041;-77
2023/03/03 04:08:47;;;;;;;59.35;33.67;;;;;;;;;;5035010;28;20033;-77
2023/03/03 04:11:12;;;;;;;67.53;35.95;;;;;;;;;;5036002;28;20056;-76
2023/03/03 04:13:39;;;;;;;59.60;31.15;;;;;;;;;;5022996;28;20033;-77
2023/03/03 04:16:05;;;;;;;63.05;33.67;;;;;;;;;;5032182;28;20566;-77
2023/03/03 04:18:31;;;;;;;65.43;32.88;;;;;;;;;;5019595;28;20045;-77
2023/03/03 04:20:57;;;;;;;64.60;33.90;;;;;;;;;;5046109;28;20589;-77
2023/03/03 04:23:23;;;;;;;65.22;32.92;;;;;;;;;;5055872;28;20386;-77
2023/03/03 04:25:49;;;;;;;59.95;31.85;;;;;;;;;;5042776;28;20493;-77
2023/03/03 04:28:16;;;;;;;65.90;34.45;;;;;;;;;;5035773;28;20545;-77
2023/03/03 04:30:42;;;;;;;56.90;29.92;;;;;;;;;;5033709;28;20064;-77
2023/03/03 04:33:08;;;;;;;63.20;32.38;;;;;;;;;;5034478;28;20044;-78
2023/03/03 04:35:34;;;;;;;63.92;32.00;;;;;;;;;;5033736;28;20033;-77
2023/03/03 04:38:00;;;;;;;68.50;34.70;;;;;;;;;;5035615;28;20115;-77
2023/03/03 04:40:26;;;;;;;64.70;32.30;;;;;;;;;;5017636;28;20149;-77
2023/03/03 04:42:52;;;;;;;59.95;32.95;;;;;;;;;;5027734;28;20071;-77
2023/03/03 04:45:18;;;;;;;69.50;33.15;;;;;;;;;;5017671;28;20049;-77
2023/03/03 04:47:44;;;;;;;68.00;35.78;;;;;;;;;;5034164;28;20030;-77
2023/03/03 04:50:10;;;;;;;68.85;36.63;;;;;;;;;;5035178;28;20152;-77
2023/03/03 04:52:36;;;;;;;66.07;34.40;;;;;;;;;;5034873;28;20042;-77
2023/03/03 04:55:03;;;;;;;57.85;30.73;;;;;;;;;;5033499;28;20037;-76
2023/03/03 04:57:29;;;;;;;60.00;32.90;;;;;;;;;;5020305;28;20037;-76
2023/03/03 04:59:55;;;;;;;59.97;32.38;;;;;;;;;;5019041;28;20075;-76
2023/03/03 05:02:21;;;;;;;56.22;30.65;;;;;;;;;;5026476;28;20029;-77
2023/03/03 05:04:47;;;;;;;54.75;29.33;;;;;;;;;;5024086;28;20038;-77
2023/03/03 05:07:13;;;;;;;56.40;28.50;;;;;;;;;;5034018;28;20044;-77
2023/03/03 05:09:39;;;;;;;61.00;32.47;;;;;;;;;;5033280;28;20052;-77
2023/03/03 05:12:05;;;;;;;60.40;31.60;;;;;;;;;;5032273;28;20033;-77
2023/03/03 05:14:31;;;;;;;53.28;29.58;;;;;;;;;;5032138;28;20037;-77
2023/03/03 05:16:57;;;;;;;60.30;31.50;;;;;;;;;;5050185;28;20037;-77
2023/03/03 05:19:24;;;;;;;63.42;34.97;;;;;;;;;;5051900;28;20433;-77
2023/03/03 05:21:50;;;;;;;60.45;33.10;;;;;;;;;;5035350;28;20034;-77
2023/03/03 05:24:16;;;;;;;61.28;33.55;;;;;;;;;;5032280;28;20036;-77
2023/03/03 05:26:42;;;;;;;56.05;28.35;;;;;;;;;;5030685;28;20061;-77
2023/03/03 05:29:08;;;;;;;63.03;33.60;;;;;;;;;;5018896;28;20065;-77
2023/03/03 05:31:34;;;;;;;60.17;32.40;;;;;;;;;;5026582;28;20048;-77
2023/03/03 05:34:00;;;;;;;66.35;33.60;;;;;;;;;;5033138;28;20037;-77
2023/03/03 05:36:26;;;;;;;73.82;37.60;;;;;;;;;;5031821;28;20034;-77
2023/03/03 05:38:53;;;;;;;60.92;33.60;;;;;;;;;;5030062;28;20136;-77
2023/03/03 05:41:19;;;;;;;57.25;30.42;;;;;;;;;;5031304;28;20033;-76
2023/03/03 05:43:45;;;;;;;60.42;32.80;;;;;;;;;;5021123;28;20041;-76
2023/03/03 05:46:11;;;;;;;62.25;31.83;;;;;;;;;;5010816;28;20791;-77
2023/03/03 05:48:37;;;;;;;67.50;35.53;;;;;;;;;;5013585;28;20040;-77
2023/03/03 05:51:04;;;;;;;79.57;42.70;;;;;;;;;;5031197;28;20037;-77
2023/03/03 05:53:30;;;;;;;76.05;40.97;;;;;;;;;;5031374;28;20076;-77
2023/03/03 05:55:56;;;;;;;81.78;40.45;;;;;;;;;;5033225;28;20119;-77
2023/03/03 05:58:22;;;;;;;68.45;35.67;;;;;;;;;;5021752;28;20022;-77
2023/03/03 06:00:48;;;;;;;72.03;37.60;;;;;;;;;;5011981;28;20105;-77
2023/03/03 06:03:15;;;;;;;74.70;39.80;;;;;;;;;;5012769;28;20045;-76
2023/03/03 06:05:41;;;;;;;65.88;35.28;;;;;;;;;;5027253;28;20049;-77
2023/03/03 06:08:07;;;;;;;68.57;36.63;;;;;;;;;;5031581;28;20041;-77
2023/03/03 06:10:33;;;;;;;68.32;36.78;;;;;;;;;;5024409;28;20040;-77
2023/03/03 06:12:59;;;;;;;74.85;39.13;;;;;;;;;;5031110;28;20781;-76
2023/03/03 06:15:25;;;;;;;65.72;35.83;;;;;;;;;;5030256;28;20463;-77
2023/03/03 06:17:51;;;;;;;67.95;34.88;;;;;;;;;;5013313;28;20380;-76
2023/03/03 06:20:17;;;;;;;59.90;31.70;;;;;;;;;;5022077;28;20035;-76
2023/03/03 06:22:43;;;;;;;63.95;33.58;;;;;;;;;;5023064;28;20034;-77
2023/03/03 06:25:09;;;;;;;63.20;32.35;;;;;;;;;;5029891;28;20034;-77
2023/03/03 06:27:35;;;;;;;69.57;34.45;;;;;;;;;;5028290;28;20414;-77
2023/03/03 06:30:02;;;;;;;61.60;33.22;;;;;;;;;;5030433;28;20384;-76
2023/03/03 06:32:28;;;;;;;68.78;34.72;;;;;;;;;;5026061;28;20736;-76
2023/03/03 06:34:54;;;;;;;64.95;35.92;;;;;;;;;;5027397;28;20068;-77
2023/03/03 06:37:20;;;;;;;73.10;37.90;;;;;;;;;;5032209;28;20037;-77
2023/03/03 06:39:46;;;;;;;70.30;37.85;;;;;;;;;;5030178;28;20071;-77
2023/03/03 06:42:12;;;;;;;72.88;37.50;;;;;;;;;;5029002;28;20463;-77
2023/03/03 06:44:38;;;;;;;66.43;35.25;;;;;;;;;;5025022;28;20042;-77
2023/03/03 06:47:04;;;;;;;61.13;34.67;;;;;;;;;;5029460;28;20051;-77
2023/03/03 06:49:30;;;;;;;68.55;35.10;;;;;;;;;;5030524;28;20116;-77
2023/03/03 06:51:58;;;;;;;70.55;35.95;;;;;;;;;;5020721;28;20137;-77
2023/03/03 06:54:27;;;;;;;62.50;34.10;;;;;;;;;;5022631;28;20029;-77
2023/03/03 06:56:57;;;;;;;63.38;35.15;;;;;;;;;;5028826;28;20517;-77
2023/03/03 06:59:23;;;;;;;67.93;36.78;;;;;;;;;;5017905;28;20032;-77
2023/03/03 07:01:50;;;;;;;67.28;35.13;;;;;;;;;;5026300;28;20080;-77
2023/03/03 07:04:19;;;;;;;68.13;36.10;;;;;;;;;;5030478;28;20026;-77
2023/03/03 07:06:45;;;;;;;71.80;36.83;;;;;;;;;;5030276;28;20033;-77
2023/03/03 07:09:22;;;;;;;67.93;36.20;;;;;;;;;;5025644;28;20079;-77
2023/03/03 07:11:48;;;;;;;66.07;33.88;;;;;;;;;;5022990;28;20092;-76
2023/03/03 07:14:16;;;;;;;71.32;39.00;;;;;;;;;;5027703;28;20037;-77
2023/03/03 07:16:42;;;;;;;81.18;43.78;;;;;;;;;;5024713;28;20029;-77
2023/03/03 07:19:16;;;;;;;74.95;37.25;;;;;;;;;;5042179;28;20112;-77
2023/03/03 07:21:42;;;;;;;81.40;43.65;;;;;;;;;;5020572;28;20033;-77
2023/03/03 07:24:28;;;;;;;81.18;42.88;;;;;;;;;;5028820;28;20071;-77
2023/03/03 07:26:59;;;;;;;85.95;44.05;;;;;;;;;;5029239;28;20494;-77
2023/03/03 07:29:26;;;;;;;79.50;43.92;;;;;;;;;;5021145;28;20068;-76
2023/03/03 07:31:54;;;;;;;85.13;41.97;;;;;;;;;;5029486;28;20048;-77
2023/03/03 07:34:20;;;;;;;84.53;43.88;;;;;;;;;;5028721;28;20071;-77
2023/03/03 07:36:47;;;;;;;93.25;45.65;;;;;;;;;;5029285;28;20120;-77
2023/03/03 07:39:28;;;;;;;94.45;44.60;;;;;;;;;;5028701;28;20109;-77
2023/03/03 07:41:59;;;;;;;81.30;43.88;;;;;;;;;;5017944;28;20039;-77
2023/03/03 07:44:28;;;;;;;78.95;41.97;;;;;;;;;;5041914;28;20060;-76
2023/03/03 07:46:54;;;;;;;99.28;48.92;;;;;;;;;;5028949;28;20033;-77
2023/03/03 07:49:22;;;;;;;80.47;43.95;;;;;;;;;;5027695;28;20029;-77
2023/03/03 07:51:52;;;;;;;87.30;44.95;;;;;;;;;;5029483;28;20041;-77
2023/03/03 07:54:27;;;;;;;89.75;46.47;;;;;;;;;;5029042;28;20554;-76
2023/03/03 07:56:55;;;;;;;78.53;41.47;;;;;;;;;;5022425;28;20116;-77
2023/03/03 07:59:22;;;;;;;84.18;44.53;;;;;;;;;;5023507;28;20038;-77
2023/03/03 08:01:51;;;;;;;80.13;43.00;;;;;;;;;;5027870;28;20037;-77
2023/03/03 08:04:17;;;;;;;84.28;44.50;;;;;;;;;;5028669;28;20583;-77
2023/03/03 08:06:47;;;;;;;89.85;44.85;;;;;;;;;;5029306;28;20124;-76
2023/03/03 08:09:24;;;;;;;83.70;45.83;;;;;;;;;;5028195;28;20107;-77
2023/03/03 08:12:11;;;;;;;94.05;48.83;;;;;;;;;;5026266;28;20088;-77
2023/03/03 08:14:37;;;;;;;79.28;42.58;;;;;;;;;;5003747;28;20053;-77
2023/03/03 08:17:27;;;;;;;82.80;43.67;;;;;;;;;;5026776;28;20045;-77
2023/03/03 08:19:54;;;;;;;85.43;44.22;;;;;;;;;;5020978;28;20616;-77
2023/03/03 08:22:31;;;;;;;84.65;46.47;;;;;;;;;;5028975;28;20040;-77
2023/03/03 08:24:57;;;;;;;90.80;42.58;;;;;;;;;;5029703;28;20025;-77
2023/03/03 08:27:23;;;;;;;83.47;43.05;;;;;;;;;;5019975;28;20079;-77
2023/03/03 08:29:49;;;;;;;77.22;40.10;;;;;;;;;;5026057;28;20048;-77
2023/03/03 08:32:15;;;;;;;75.20;43.25;;;;;;;;;;5028764;28;20052;-77
2023/03/03 08:34:41;;;;;;;80.95;40.08;;;;;;;;;;5026401;28;20029;-77
2023/03/03 08:37:07;;;;;;;82.63;42.28;;;;;;;;;;5025145;28;20597;-76
2023/03/03 08:39:33;;;;;;;80.72;42.08;;;;;;;;;;5026453;28;20614;-77
2023/03/03 08:41:59;;;;;;;83.35;45.13;;;;;;;;;;5032404;28;20570;-76
2023/03/03 08:44:25;;;;;;;81.05;43.03;;;;;;;;;;5027697;28;20110;-77
2023/03/03 08:46:51;;;;;;;88.10;44.72;;;;;;;;;;5018722;28;20056;-77
2023/03/03 08:49:17;;;;;;;80.15;44.38;;;;;;;;;;5030352;28;20689;-77
2023/03/03 08:51:43;;;;;;;78.68;44.05;;;;;;;;;;5027171;28;20041;-77
2023/03/03 08:54:09;;;;;;;75.82;43.05;;;;;;;;;;5028640;28;20046;-77
2023/03/03 08:56:35;;;;;;;84.18;43.67;;;;;;;;;;5031364;28;20383;-77
2023/03/03 08:59:01;;;;;;;83.10;44.05;;;;;;;;;;5020954;28;20533;-76
2023/03/03 09:01:27;;;;;;;76.70;44.00;;;;;;;;;;5035423;28;20029;-76
2023/03/03 09:03:53;;;;;;;78.47;45.13;;;;;;;;;;5032299;28;20025;-77
2023/03/03 09:06:19;;;;;;;68.85;39.35;;;;;;;;;;5026885;28;20045;-77
2023/03/03 09:08:45;;;;;;;79.80;44.25;;;;;;;;;;5020235;28;20042;-77
2023/03/03 09:11:13;;;;;;;78.25;42.70;;;;;;;;;;5024048;28;20046;-76
2023/03/03 09:13:39;;;;;;;76.32;43.47;;;;;;;;;;5014844;28;20125;-77
2023/03/03 09:16:15;;;;;;;83.43;48.05;;;;;;;;;;5031139;28;20056;-77
2023/03/03 09:18:41;;;;;;;85.70;46.30;;;;;;;;;;5031251;28;20638;-77
2023/03/03 09:21:33;;;;;;;81.97;48.72;;;;;;;;;;5026423;28;20034;-76
2023/03/03 09:23:59;;;;;;;82.10;44.42;;;;;;;;;;5032062;28;20531;-78
2023/03/03 09:26:31;;;;;;;81.75;47.10;;;;;;;;;;5031108;28;20095;-77
2023/03/03 09:29:09;;;;;;;83.75;48.22;;;;;;;;;;5029831;28;20060;-77
2023/03/03 09:31:39;;;;;;;88.10;47.65;;;;;;;;;;5030899;28;20059;-77
2023/03/03 09:34:26;;;;;;;80.50;44.72;;;;;;;;;;5030483;28;20478;-77
2023/03/03 09:36:53;;;;;;;83.20;46.85;;;;;;;;;;5028715;28;20033;-76
2023/03/03 09:39:26;;;;;;;80.10;47.17;;;;;;;;;;5031647;28;20847;-77
2023/03/03 09:42:09;;;;;;;79.40;43.58;;;;;;;;;;5026497;28;20037;-77
2023/03/03 09:44:35;;;;;;;79.63;44.42;;;;;;;;;;5027160;28;20125;-77
2023/03/03 09:47:13;;;;;;;89.60;48.70;;;;;;;;;;5027460;28;20772;-77
2023/03/03 09:49:58;;;;;;;83.10;45.70;;;;;;;;;;5031245;28;20053;-77
2023/03/03 09:52:27;;;;;;;81.90;44.97;;;;;;;;;;5026042;28;20417;-77
2023/03/03 09:55:02;;;;;;;76.32;42.55;;;;;;;;;;5031147;28;20072;-77
2023/03/03 09:57:47;;;;;;;88.93;48.28;;;;;;;;;;5026786;28;20041;-77
2023/03/03 10:00:26;;;;;;;84.85;48.95;;;;;;;;;;5029418;28;20492;-77
2023/03/03 10:03:14;;;;;;;79.25;43.88;;;;;;;;;;5026840;28;20042;-77
2023/03/03 10:05:58;;;;;;;82.90;46.15;;;;;;;;;;5027856;28;20034;-77
2023/03/03 10:08:24;;;;;;;79.50;45.88;;;;;;;;;;5022851;28;20057;-77
2023/03/03 10:11:08;;;;;;;84.13;49.50;;;;;;;;;;5021265;28;20041;-77
2023/03/03 10:13:37;;;;;;;82.40;45.17;;;;;;;;;;5026335;28;20061;-77
2023/03/03 10:16:18;;;;;;;90.13;49.97;;;;;;;;;;5026062;28;20045;-76
2023/03/03 10:19:03;;;;;;;85.38;47.30;;;;;;;;;;5033295;28;20661;-76
2023/03/03 10:21:36;;;;;;;86.47;49.80;;;;;;;;;;5030261;28;20430;-76
2023/03/03 10:24:06;;;;;;;91.45;48.92;;;;;;;;;;5027424;28;20034;-77
2023/03/03 10:26:37;;;;;;;87.18;48.45;;;;;;;;;;5021206;28;20103;-77
2023/03/03 10:29:10;;;;;;;90.60;44.90;;;;;;;;;;5027629;28;20033;-77
2023/03/03 10:31:44;;;;;;;78.65;44.38;;;;;;;;;;5030632;28;20034;-77
2023/03/03 10:34:13;;;;;;;84.60;46.40;;;;;;;;;;5028379;28;20033;-77
2023/03/03 10:36:48;;;;;;;88.57;50.55;;;;;;;;;;5030539;28;20087;-77
2023/03/03 10:39:14;;;;;;;82.43;49.03;;;;;;;;;;5025835;28;20057;-76
2023/03/03 10:41:40;;;;;;;81.43;47.67;;;;;;;;;;5018990;28;20061;-77
2023/03/03 10:44:17;;;;;;;84.50;48.28;;;;;;;;;;5029623;28;20026;-77
2023/03/03 10:47:02;;;;;;;84.47;46.33;;;;;;;;;;5019151;28;20045;-77
2023/03/03 10:49:41;;;;;;;85.43;48.00;;;;;;;;;;5025005;28;20037;-77
2023/03/03 10:52:20;;;;;;;84.85;47.15;;;;;;;;;;5026078;28;20038;-77
2023/03/03 10:55:05;;;;;;;87.95;50.85;;;;;;;;;;5022659;28;20116;-77
2023/03/03 10:57:37;;;;;;;85.18;44.85;;;;;;;;;;5023017;28;20440;-76
2023/03/03 11:00:22;;;;;;;87.38;51.47;;;;;;;;;;5025866;28;20478;-76
2023/03/03 11:02:54;;;;;;;85.97;47.38;;;;;;;;;;5029477;28;20068;-76
2023/03/03 11:05:20;;;;;;;87.10;48.00;;;;;;;;;;5026007;28;20036;-76
2023/03/03 11:07:49;;;;;;;82.82;46.08;;;;;;;;;;5021575;28;20029;-76
2023/03/03 11:10:18;;;;;;;86.60;48.33;;;;;;;;;;5019247;28;20038;-76
2023/03/03 11:12:52;;;;;;;91.90;47.90;;;;;;;;;;5029636;28;20132;-77
2023/03/03 11:15:18;;;;;;;82.53;44.95;;;;;;;;;;5028878;28;20061;-76
2023/03/03 11:17:45;;;;;;;83.88;48.72;;;;;;;;;;5029209;28;20038;-77
2023/03/03 11:20:21;;;;;;;83.93;46.60;;;;;;;;;;5025459;28;20033;-77
2023/03/03 11:23:06;;;;;;;81.43;46.72;;;;;;;;;;5026887;28;20033;-77
2023/03/03 11:25:37;;;;;;;84.45;47.33;;;;;;;;;;5019353;28;20109;-77
2023/03/03 11:28:16;;;;;;;89.00;49.33;;;;;;;;;;5021342;28;20037;-76
2023/03/03 11:30:42;;;;;;;84.40;46.60;;;;;;;;;;5021871;28;20037;-77
2023/03/03 11:33:20;;;;;;;82.13;46.55;;;;;;;;;;5028726;28;20190;-77
2023/03/03 11:35:55;;;;;;;87.68;48.13;;;;;;;;;;5025774;28;20045;-77
2023/03/03 11:38:38;;;;;;;91.35;52.33;;;;;;;;;;5015415;28;20131;-77
2023/03/03 11:41:13;;;;;;;85.13;48.03;;;;;;;;;;5015690;28;20060;-77
2023/03/03 11:43:46;;;;;;;89.07;51.38;;;;;;;;;;5028529;28;20025;-76
2023/03/03 11:46:17;;;;;;;84.20;48.42;;;;;;;;;;5029140;28;20712;-77
2023/03/03 11:48:43;;;;;;;92.80;54.45;;;;;;;;;;5020475;28;20348;-77
2023/03/03 11:51:15;;;;;;;84.25;49.40;;;;;;;;;;5029232;28;20041;-76
2023/03/03 11:53:44;;;;;;;87.97;48.85;;;;;;;;;;5028535;28;20026;-76
2023/03/03 11:56:17;;;;;;;95.68;52.40;;;;;;;;;;5027561;28;20058;-76
2023/03/03 11:58:50;;;;;;;90.22;50.65;;;;;;;;;;5023308;28;20022;-76
2023/03/03 12:01:20;;;;;;;85.30;48.15;;;;;;;;;;5021889;28;20040;-77
2023/03/03 12:03:55;;;;;;;84.18;50.00;;;;;;;;;;5022601;28;20040;-76
2023/03/03 12:06:39;;;;;;;87.75;49.05;;;;;;;;;;5027730;28;20117;-77
2023/03/03 12:09:20;;;;;;;87.90;50.17;;;;;;;;;;5028229;28;20068;-76
2023/03/03 12:11:49;;;;;;;88.80;52.80;;;;;;;;;;5019995;28;20049;-76
2023/03/03 12:14:27;;;;;;;85.47;49.05;;;;;;;;;;5028345;28;20088;-76
2023/03/03 12:16:53;;;;;;;80.82;46.50;;;;;;;;;;5026179;28;20045;-77
2023/03/03 12:19:29;;;;;;;81.20;48.53;;;;;;;;;;5028441;28;20037;-76
2023/03/03 12:22:04;;;;;;;87.78;51.10;;;;;;;;;;5022092;28;20060;-76
2023/03/03 12:24:40;;;;;;;83.57;47.60;;;;;;;;;;5032610;28;20584;-77
2023/03/03 12:27:06;;;;;;;79.22;45.22;;;;;;;;;;5027831;28;20048;-76
2023/03/03 12:29:50;;;;;;;79.68;45.85;;;;;;;;;;5030758;28;20367;-76
2023/03/03 12:32:26;;;;;;;103.43;49.70;;;;;;;;;;5030743;28;20095;-76
2023/03/03 12:35:04;;;;;;;91.72;52.20;;;;;;;;;;5030424;28;20030;-77
2023/03/03 12:37:30;;;;;;;84.15;48.42;;;;;;;;;;5031615;28;20105;-76
2023/03/03 12:40:07;;;;;;;83.20;48.10;;;;;;;;;;5032540;28;20104;-76
2023/03/03 12:42:36;;;;;;;80.68;47.63;;;;;;;;;;5027580;28;20072;-76
2023/03/03 12:45:25;;;;;;;83.20;46.53;;;;;;;;;;5032334;28;20160;-76
2023/03/03 12:48:14;;;;;;;85.05;48.42;;;;;;;;;;5026916;28;20088;-77
2023/03/03 12:50:40;;;;;;;89.43;50.10;;;;;;;;;;5025022;28;20566;-76
2023/03/03 12:53:05;;;;;;;82.20;48.75;;;;;;;;;;5027018;28;20044;-77
2023/03/03 12:55:32;;;;;;;81.50;45.67;;;;;;;;;;5030528;28;20605;-76
2023/03/03 12:58:04;;;;;;;77.82;46.03;;;;;;;;;;5033919;28;20063;-76
2023/03/03 13:00:43;;;;;;;93.72;53.20;;;;;;;;;;5028857;28;20064;-76
2023/03/03 13:03:41;;;;;;;84.75;49.65;;;;;;;;;;5032083;28;20449;-76
2023/03/03 13:06:07;;;;;;;86.72;46.85;;;;;;;;;;4996404;28;20563;-76
2023/03/03 13:08:39;;;;;;;80.40;46.83;;;;;;;;;;5025117;28;20106;-76
2023/03/03 13:11:23;;;;;;;85.97;48.17;;;;;;;;;;5025539;28;20132;-76
2023/03/03 13:14:04;;;;;;;89.32;51.47;;;;;;;;;;5030312;28;20037;-76
2023/03/03 13:16:39;;;;;;;87.18;50.03;;;;;;;;;;5023064;28;20374;-77
2023/03/03 13:19:11;;;;;;;81.30;50.65;;;;;;;;;;5033302;28;20086;-77
2023/03/03 13:21:37;;;;;;;86.07;50.85;;;;;;;;;;5029278;28;20079;-76
2023/03/03 13:24:15;;;;;;;86.57;47.65;;;;;;;;;;5030159;28;20033;-77
2023/03/03 13:26:51;;;;;;;85.85;49.65;;;;;;;;;;5028257;28;20139;-76
2023/03/03 13:29:33;;;;;;;85.85;48.05;;;;;;;;;;5036795;28;20045;-77
2023/03/03 13:32:02;;;;;;;81.15;49.10;;;;;;;;;;5028229;28;20069;-76
2023/03/03 13:34:28;;;;;;;87.85;48.58;;;;;;;;;;5030036;28;20033;-77
2023/03/03 13:37:18;;;;;;;84.57;49.03;;;;;;;;;;5029371;28;20554;-77
2023/03/03 13:40:07;;;;;;;90.55;52.10;;;;;;;;;;5024042;28;20119;-76
2023/03/03 13:42:56;;;;;;;80.72;47.50;;;;;;;;;;5029234;28;20502;-77
2023/03/03 13:45:30;;;;;;;79.38;47.30;;;;;;;;;;4993591;28;20053;-76
2023/03/03 13:48:02;;;;;;;81.63;46.65;;;;;;;;;;5022749;28;20034;-77
2023/03/03 13:50:44;;;;;;;80.35;48.25;;;;;;;;;;5031219;28;20037;-76
2023/03/03 13:53:22;;;;;;;78.43;45.35;;;;;;;;;;5012561;28;20056;-76
2023/03/03 13:55:58;;;;;;;78.53;47.95;;;;;;;;;;5025051;28;20045;-76
2023/03/03 13:58:33;;;;;;;81.10;47.70;;;;;;;;;;5030259;28;20132;-76
2023/03/03 14:00:59;;;;;;;83.10;47.50;;;;;;;;;;5026604;28;20095;-76
2023/03/03 14:03:34;;;;;;;78.22;48.08;;;;;;;;;;5029818;28;20025;-77
2023/03/03 14:06:04;;;;;;;77.90;46.30;;;;;;;;;;5029060;28;20041;-77
2023/03/03 14:08:33;;;;;;;73.30;43.70;;;;;;;;;;5029539;28;20035;-76
2023/03/03 14:10:59;;;;;;;79.55;48.22;;;;;;;;;;5030245;28;20457;-76
2023/03/03 14:13:40;;;;;;;82.10;47.20;;;;;;;;;;5024554;28;20025;-76
2023/03/03 14:16:19;;;;;;;78.18;46.03;;;;;;;;;;5024454;28;20507;-77
2023/03/03 14:18:59;;;;;;;76.82;42.53;;;;;;;;;;5029707;28;20033;-77
2023/03/03 14:21:30;;;;;;;76.18;46.60;;;;;;;;;;5029022;28;20103;-77
2023/03/03 14:24:05;;;;;;;82.03;46.88;;;;;;;;;;5029028;28;20029;-76
2023/03/03 14:26:31;;;;;;;77.70;47.45;;;;;;;;;;5016430;28;20049;-77
2023/03/03 14:29:14;;;;;;;79.68;44.55;;;;;;;;;;5035094;28;20871;-76
2023/03/03 14:31:42;;;;;;;79.28;47.90;;;;;;;;;;5014543;28;20034;-77
2023/03/03 14:34:11;;;;;;;77.05;48.40;;;;;;;;;;5027718;28;20383;-77